createdAt,value
2022-11-18T00:01:13.047Z,17.30
2022-11-18T00:03:40.567Z,16.10
2022-11-18T00:06:09.725Z,15.80
2022-11-18T00:08:36.373Z,19.57
2022-11-18T00:11:07.464Z,23.40
2022-11-18T00:13:52.824Z,12.93
2022-11-18T00:16:19.590Z,19.97
2022-11-18T00:18:46.449Z,17.33
2022-11-18T00:21:13.285Z,22.13
2022-11-18T00:23:40.200Z,17.00
2022-11-18T00:26:14.221Z,15.47
2022-11-18T00:28:41.725Z,16.27
2022-11-18T00:31:10.734Z,19.03
2022-11-18T00:33:37.940Z,17.03
2022-11-18T00:36:06.298Z,17.17
2022-11-18T00:38:33.101Z,14.37
2022-11-18T00:41:07.507Z,19.20
2022-11-18T00:43:34.740Z,16.90
2022-11-18T00:46:01.501Z,18.17
2022-11-18T00:48:28.328Z,18.07
2022-11-18T00:50:57.182Z,20.40
2022-11-18T00:53:25.869Z,20.67
2022-11-18T00:55:53.055Z,17.97
2022-11-18T00:58:19.799Z,20.37
2022-11-18T01:00:50.003Z,18.40
2022-11-18T01:03:16.663Z,17.70
2022-11-18T01:05:43.338Z,20.07
2022-11-18T01:08:11.752Z,23.00
2022-11-18T01:10:39.097Z,20.67
2022-11-18T01:13:22.960Z,18.07
2022-11-18T01:15:54.766Z,19.90
2022-11-18T01:18:24.327Z,20.57
2022-11-18T01:20:51.167Z,23.07
2022-11-18T01:23:19.752Z,17.70
2022-11-18T01:25:48.181Z,20.17
2022-11-18T01:28:18.865Z,17.67
2022-11-18T01:30:49.806Z,22.37
2022-11-18T01:33:16.387Z,20.77
2022-11-18T01:35:44.324Z,18.23
2022-11-18T01:38:12.393Z,22.40
2022-11-18T01:40:39.331Z,24.30
2022-11-18T01:43:18.237Z,21.00
2022-11-18T01:45:47.591Z,18.80
2022-11-18T01:48:27.056Z,20.30
2022-11-18T01:50:56.602Z,18.27
2022-11-18T01:53:29.346Z,23.23
2022-11-18T01:55:58.306Z,21.50
2022-11-18T01:58:29.217Z,22.80
2022-11-18T02:00:55.847Z,16.50
2022-11-18T02:03:22.713Z,20.97
2022-11-18T02:05:50.399Z,19.70
2022-11-18T02:08:17.851Z,20.60
2022-11-18T02:10:44.608Z,19.50
2022-11-18T02:13:11.953Z,19.90
2022-11-18T02:15:49.441Z,18.80
2022-11-18T02:18:40.801Z,21.80
2022-11-18T02:21:31.870Z,19.10
2022-11-18T02:24:13.519Z,21.70
2022-11-18T02:27:15.087Z,18.97
2022-11-18T02:29:56.297Z,19.60
2022-11-18T02:32:26.732Z,22.10
2022-11-18T02:35:00.616Z,21.43
2022-11-18T02:37:35.383Z,21.30
2022-11-18T02:40:11.422Z,19.57
2022-11-18T02:42:39.533Z,20.60
2022-11-18T02:45:09.700Z,20.13
2022-11-18T02:47:37.579Z,22.87
2022-11-18T02:50:11.060Z,21.80
2022-11-18T02:52:39.155Z,22.93
2022-11-18T02:55:08.494Z,21.07
2022-11-18T02:57:36.294Z,22.17
2022-11-18T03:00:04.252Z,27.33
2022-11-18T03:02:48.409Z,26.90
2022-11-18T03:05:40.188Z,25.00
2022-11-18T03:08:12.792Z,28.93
2022-11-18T03:10:49.999Z,32.03
2022-11-18T03:13:23.889Z,30.53
2022-11-18T03:16:07.305Z,32.07
2022-11-18T03:18:42.990Z,26.83
2022-11-18T03:21:34.347Z,32.40
2022-11-18T03:24:11.800Z,31.50
2022-11-18T03:26:46.425Z,27.43
2022-11-18T03:29:18.575Z,27.80
2022-11-18T03:31:58.376Z,25.17
2022-11-18T03:34:34.751Z,28.70
2022-11-18T03:37:07.668Z,27.37
2022-11-18T03:39:40.215Z,29.87
2022-11-18T03:42:08.649Z,30.60
2022-11-18T03:44:38.411Z,26.17
2022-11-18T03:47:21.504Z,29.03
2022-11-18T03:49:53.679Z,32.40
2022-11-18T03:52:24.610Z,29.30
2022-11-18T03:54:53.103Z,28.60
2022-11-18T03:57:30.974Z,31.80
2022-11-18T04:00:05.040Z,24.37
2022-11-18T04:02:32.128Z,27.00
2022-11-18T04:05:00.294Z,27.80
2022-11-18T04:07:45.763Z,25.73
2022-11-18T04:10:35.464Z,26.80
2022-11-18T04:13:06.857Z,24.10
2022-11-18T04:15:36.384Z,27.43
2022-11-18T04:18:03.274Z,25.50
2022-11-18T04:20:31.746Z,24.60
2022-11-18T04:22:58.404Z,20.23
2022-11-18T04:25:25.136Z,30.50
2022-11-18T04:27:51.937Z,21.60
2022-11-18T04:30:19.658Z,24.07
2022-11-18T04:32:46.430Z,23.37
2022-11-18T04:35:13.430Z,25.30
2022-11-18T04:37:40.037Z,23.40
2022-11-18T04:40:07.348Z,25.00
2022-11-18T04:42:33.984Z,26.67
2022-11-18T04:45:00.800Z,27.87
2022-11-18T04:47:27.498Z,25.20
2022-11-18T04:49:54.185Z,26.13
2022-11-18T04:52:20.946Z,25.57
2022-11-18T04:54:47.585Z,24.60
2022-11-18T04:57:14.417Z,27.33
2022-11-18T04:59:41.139Z,26.00
2022-11-18T05:02:07.985Z,23.63
2022-11-18T05:04:35.615Z,19.33
2022-11-18T05:07:04.048Z,19.63
2022-11-18T05:09:32.196Z,21.23
2022-11-18T05:12:18.036Z,21.80
2022-11-18T05:14:49.538Z,18.53
2022-11-18T05:17:17.089Z,16.40
2022-11-18T05:19:43.913Z,20.73
2022-11-18T05:22:10.530Z,20.17
2022-11-18T05:24:37.362Z,21.00
2022-11-18T05:27:04.044Z,18.40
2022-11-18T05:29:30.768Z,21.30
2022-11-18T05:31:57.682Z,18.53
2022-11-18T05:34:24.377Z,17.93
2022-11-18T05:36:51.559Z,16.20
2022-11-18T05:39:18.767Z,19.60
2022-11-18T05:42:04.240Z,14.60
2022-11-18T05:44:30.947Z,15.03
2022-11-18T05:46:57.685Z,18.57
2022-11-18T05:49:24.428Z,17.53
2022-11-18T05:51:51.281Z,14.63
2022-11-18T05:54:19.484Z,15.30
2022-11-18T05:56:46.215Z,13.77
2022-11-18T05:59:14.043Z,13.73
2022-11-18T06:02:02.303Z,15.33
2022-11-18T06:04:37.326Z,12.63
2022-11-18T06:07:17.912Z,12.40
2022-11-18T06:09:48.134Z,14.13
2022-11-18T06:12:17.244Z,15.83
2022-11-18T06:14:54.693Z,19.77
2022-11-18T06:17:28.533Z,14.00
2022-11-18T06:19:55.414Z,16.30
2022-11-18T06:22:25.877Z,17.13
2022-11-18T06:25:01.769Z,12.47
2022-11-18T06:27:28.983Z,14.97
2022-11-18T06:29:55.619Z,17.00
2022-11-18T06:32:30.025Z,14.13
2022-11-18T06:34:56.608Z,12.13
2022-11-18T06:37:23.557Z,11.37
2022-11-18T06:39:59.913Z,9.83
2022-11-18T06:42:48.112Z,13.40
2022-11-18T06:45:15.087Z,9.77
2022-11-18T06:47:44.673Z,11.17
2022-11-18T06:50:14.657Z,10.90
2022-11-18T06:52:41.320Z,11.00
2022-11-18T06:55:08.587Z,9.83
2022-11-18T06:57:35.682Z,12.10
2022-11-18T07:00:05.062Z,11.20
2022-11-18T07:02:36.721Z,12.50
2022-11-18T07:05:18.310Z,12.70
2022-11-18T07:07:45.183Z,10.23
2022-11-18T07:10:12.028Z,9.53
2022-11-18T07:12:38.729Z,10.20
2022-11-18T07:15:08.741Z,10.20
2022-11-18T07:17:35.445Z,12.23
2022-11-18T07:20:02.059Z,9.80
2022-11-18T07:22:31.914Z,12.07
2022-11-18T07:24:58.667Z,10.20
2022-11-18T07:27:25.331Z,11.20
2022-11-18T07:29:55.780Z,12.70
2022-11-18T07:32:25.576Z,10.10
2022-11-18T07:34:58.038Z,12.80
2022-11-18T07:37:27.500Z,12.40
2022-11-18T07:39:55.455Z,11.17
2022-11-18T07:42:26.085Z,11.77
2022-11-18T07:44:56.126Z,13.97
2022-11-18T07:47:26.697Z,13.83
2022-11-18T07:49:56.661Z,13.20
2022-11-18T07:52:26.486Z,15.57
2022-11-18T07:54:56.295Z,14.07
2022-11-18T07:57:25.648Z,13.30
2022-11-18T07:59:56.017Z,15.50
2022-11-18T08:02:25.819Z,13.20
2022-11-18T08:04:55.390Z,17.50
2022-11-18T08:07:47.555Z,14.07
2022-11-18T08:10:14.286Z,16.90
2022-11-18T08:12:40.983Z,16.17
2022-11-18T08:16:08.415Z,18.17
2022-11-18T08:19:23.381Z,16.80
2022-11-18T08:22:06.734Z,18.97
2022-11-18T08:37:13.192Z,24.80
2022-11-18T08:44:48.713Z,28.03
2022-11-18T08:47:15.440Z,28.03
2022-11-18T08:50:30.374Z,25.80
2022-11-18T08:53:22.711Z,20.93
2022-11-18T08:56:00.994Z,24.83
2022-11-18T08:58:33.195Z,25.33
2022-11-18T09:01:17.363Z,23.53
2022-11-18T09:03:44.253Z,23.40
2022-11-18T09:06:14.924Z,20.20
2022-11-18T09:11:51.880Z,24.40
2022-11-18T09:17:10.323Z,18.70
2022-11-18T09:19:48.655Z,22.60
2022-11-18T09:22:19.913Z,22.23
2022-11-18T09:24:56.728Z,23.50
2022-11-18T09:27:25.952Z,21.90
2022-11-18T09:29:58.723Z,21.80
2022-11-18T09:32:25.439Z,21.60
2022-11-18T09:34:53.552Z,25.40
2022-11-18T09:37:22.211Z,23.23
2022-11-18T09:40:45.606Z,23.23
2022-11-18T09:43:56.065Z,23.40
2022-11-18T09:50:49.653Z,24.97
2022-11-18T09:53:32.049Z,18.27
2022-11-18T09:56:10.951Z,21.80
2022-11-18T09:59:13.649Z,20.07
2022-11-18T10:06:51.894Z,26.93
2022-11-18T10:14:50.636Z,20.60
2022-11-18T10:17:25.053Z,22.10
2022-11-18T10:20:08.301Z,20.80
2022-11-18T10:23:08.602Z,25.47
2022-11-18T10:25:35.266Z,23.30
2022-11-18T10:28:18.170Z,27.87
2022-11-18T10:30:48.970Z,23.90
2022-11-18T10:33:32.411Z,23.27
2022-11-18T10:36:36.457Z,27.47
2022-11-18T10:39:14.879Z,26.53
2022-11-18T10:42:04.884Z,26.07
2022-11-18T10:44:42.778Z,28.33
2022-11-18T10:47:52.173Z,26.97
2022-11-18T10:50:55.082Z,26.83
2022-11-18T10:53:46.655Z,28.80
2022-11-18T10:56:16.785Z,30.07
2022-11-18T11:01:55.271Z,24.27
2022-11-18T11:04:27.513Z,26.00
2022-11-18T11:06:54.374Z,22.60
2022-11-18T11:09:41.592Z,24.17
2022-11-18T11:12:28.458Z,27.93
2022-11-18T11:15:22.191Z,23.67
2022-11-18T11:18:36.061Z,30.33
2022-11-18T11:21:02.807Z,30.87
2022-11-18T11:23:31.121Z,32.53
2022-11-18T11:29:09.486Z,33.20
2022-11-18T11:32:01.072Z,32.57
2022-11-18T11:34:39.932Z,25.00
2022-11-18T11:37:06.679Z,35.23
2022-11-18T11:39:47.735Z,27.53
2022-11-18T11:42:42.226Z,26.20
2022-11-18T11:45:38.641Z,27.63
2022-11-18T11:48:18.431Z,25.43
2022-11-18T11:51:04.439Z,26.73
2022-11-18T11:54:11.172Z,27.40
2022-11-18T11:57:06.757Z,25.53
2022-11-18T11:59:56.474Z,24.43
2022-11-18T12:02:47.755Z,23.40
2022-11-18T12:05:34.347Z,27.57
2022-11-18T12:08:40.577Z,29.50
2022-11-18T12:11:21.277Z,34.43
2022-11-18T12:14:06.971Z,31.30
2022-11-18T12:17:15.569Z,32.80
2022-11-18T12:19:43.006Z,34.27
2022-11-18T12:22:10.211Z,30.23
2022-11-18T12:24:38.485Z,36.10
2022-11-18T12:27:15.166Z,35.57
2022-11-18T12:29:56.923Z,31.83
2022-11-18T12:32:47.043Z,41.97
2022-11-18T12:35:14.743Z,40.93
2022-11-18T12:37:53.745Z,33.63
2022-11-18T12:40:42.519Z,33.17
2022-11-18T12:43:54.211Z,33.27
2022-11-18T12:46:45.395Z,29.00
2022-11-18T12:49:22.025Z,30.13
2022-11-18T12:51:59.614Z,26.70
2022-11-18T12:54:32.252Z,29.50
2022-11-18T12:57:29.840Z,31.00
2022-11-18T12:59:57.071Z,29.50
2022-11-18T13:02:28.567Z,27.40
2022-11-18T13:05:04.772Z,27.13
2022-11-18T13:07:52.490Z,27.47
2022-11-18T13:10:25.387Z,27.17
2022-11-18T13:12:52.922Z,24.90
2022-11-18T13:15:38.761Z,26.50
2022-11-18T13:18:08.162Z,22.87
2022-11-18T13:20:38.546Z,24.80
2022-11-18T13:23:32.340Z,22.97
2022-11-18T13:26:08.835Z,24.40
2022-11-18T13:28:47.025Z,26.10
2022-11-18T13:31:25.635Z,28.30
2022-11-18T13:33:53.180Z,29.87
2022-11-18T13:36:37.087Z,29.37
2022-11-18T13:39:33.627Z,27.80
2022-11-18T13:42:17.755Z,26.03
2022-11-18T13:45:02.014Z,29.07
2022-11-18T13:47:46.231Z,27.73
2022-11-18T13:50:25.291Z,27.93
2022-11-18T13:53:04.101Z,25.77
2022-11-18T13:55:40.752Z,26.27
2022-11-18T13:58:19.829Z,24.27
2022-11-18T14:01:01.267Z,24.73
2022-11-18T14:03:40.730Z,29.47
2022-11-18T14:06:10.665Z,29.00
2022-11-18T14:08:39.269Z,26.97
2022-11-18T14:11:06.941Z,23.90
2022-11-18T14:13:48.705Z,22.90
2022-11-18T14:16:18.419Z,25.80
2022-11-18T14:18:46.758Z,22.10
2022-11-18T14:21:27.255Z,22.00
2022-11-18T14:23:55.246Z,20.70
2022-11-18T14:26:29.016Z,24.20
2022-11-18T14:29:07.771Z,19.30
2022-11-18T14:32:17.500Z,20.93
2022-11-18T14:35:01.502Z,22.30
2022-11-18T14:38:00.088Z,18.30
2022-11-18T14:41:00.002Z,19.20
2022-11-18T14:43:27.333Z,20.87
2022-11-18T14:45:57.465Z,17.57
2022-11-18T14:48:31.094Z,18.60
2022-11-18T14:50:59.694Z,21.23
2022-11-18T14:53:26.482Z,24.40
2022-11-18T14:55:54.123Z,19.43
2022-11-18T14:58:20.829Z,21.40
2022-11-18T15:00:53.022Z,22.93
2022-11-18T15:03:20.699Z,23.90
2022-11-18T15:05:47.589Z,26.00
2022-11-18T15:08:17.662Z,23.30
2022-11-18T15:10:48.505Z,24.00
2022-11-18T15:13:18.350Z,22.57
2022-11-18T15:15:45.083Z,23.43
2022-11-18T15:18:14.198Z,25.60
2022-11-18T15:20:54.722Z,27.73
2022-11-18T15:23:33.730Z,29.53
2022-11-18T15:26:12.313Z,25.97
2022-11-18T15:28:56.821Z,26.80
2022-11-18T15:32:03.049Z,29.27
2022-11-18T15:34:41.552Z,30.20
2022-11-18T15:37:12.087Z,31.57
2022-11-18T15:45:01.774Z,27.23
2022-11-18T15:58:41.030Z,25.10
2022-11-18T16:01:46.140Z,25.17
2022-11-18T16:04:31.267Z,26.97
2022-11-18T16:07:29.438Z,26.53
2022-11-18T16:10:34.206Z,27.93
2022-11-18T16:13:07.281Z,25.27
2022-11-18T16:15:50.630Z,25.43
2022-11-18T16:18:19.606Z,24.20
2022-11-18T16:21:11.462Z,25.27
2022-11-18T16:23:40.535Z,31.70
2022-11-18T16:28:52.325Z,24.00
2022-11-18T16:31:48.512Z,19.57
2022-11-18T16:34:35.529Z,29.50
2022-11-18T16:37:02.348Z,28.73
2022-11-18T16:39:29.393Z,28.17
2022-11-18T16:42:08.378Z,31.07
2022-11-18T16:44:37.076Z,32.83
2022-11-18T16:47:13.888Z,31.17
2022-11-18T16:49:41.822Z,30.33
2022-11-18T16:52:38.920Z,29.00
2022-11-18T16:55:05.819Z,30.40
2022-11-18T16:57:35.739Z,31.47
2022-11-18T17:00:03.961Z,31.43
2022-11-18T17:02:34.809Z,30.47
2022-11-18T17:05:06.094Z,39.20
2022-11-18T17:08:03.396Z,38.50
2022-11-18T17:10:31.445Z,34.13
2022-11-18T17:12:58.396Z,35.70
2022-11-18T17:18:19.641Z,33.50
2022-11-18T17:20:48.358Z,32.13
2022-11-18T17:23:27.252Z,37.90
2022-11-18T17:25:54.609Z,35.13
2022-11-18T17:28:36.688Z,39.97
2022-11-18T17:31:41.652Z,34.50
2022-11-18T17:37:12.479Z,34.20
2022-11-18T17:39:41.294Z,36.43
2022-11-18T17:42:31.862Z,35.37
2022-11-18T17:45:02.601Z,33.90
2022-11-18T17:47:43.487Z,38.13
2022-11-18T17:50:11.467Z,39.53
2022-11-18T17:52:38.239Z,34.13
2022-11-18T17:55:08.290Z,38.03
2022-11-18T17:57:34.951Z,30.93
2022-11-18T18:00:01.780Z,31.43
2022-11-18T18:02:34.229Z,32.10
2022-11-18T18:05:00.853Z,38.10
2022-11-18T18:07:29.972Z,37.17
2022-11-18T18:09:57.850Z,38.43
2022-11-18T18:12:43.324Z,34.53
2022-11-18T18:15:10.378Z,27.27
2022-11-18T18:17:40.363Z,35.60
2022-11-18T18:20:07.545Z,34.43
2022-11-18T18:22:34.375Z,38.20
2022-11-18T18:25:01.119Z,35.17
2022-11-18T18:27:31.496Z,41.87
2022-11-18T18:30:01.025Z,39.70
2022-11-18T18:32:29.483Z,39.33
2022-11-18T18:34:56.422Z,43.53
2022-11-18T18:37:24.220Z,37.10
2022-11-18T18:39:54.344Z,41.17
2022-11-18T18:42:28.680Z,44.23
2022-11-18T18:45:22.130Z,42.20
2022-11-18T18:47:48.840Z,41.20
2022-11-18T18:50:15.649Z,40.63
2022-11-18T18:52:42.780Z,39.73
2022-11-18T18:55:11.895Z,41.23
2022-11-18T18:57:40.589Z,40.27
2022-11-18T19:00:08.121Z,42.13
2022-11-18T19:02:34.774Z,38.50
2022-11-18T19:05:01.592Z,43.10
2022-11-18T19:07:31.467Z,40.00
2022-11-18T19:09:58.379Z,34.77
2022-11-18T19:12:43.241Z,35.93
2022-11-18T19:15:14.022Z,38.47
2022-11-18T19:17:41.359Z,33.03
2022-11-18T19:23:22.304Z,38.83
2022-11-18T19:25:48.971Z,33.57
2022-11-18T19:28:19.285Z,40.00
2022-11-18T19:30:46.367Z,37.93
2022-11-18T19:33:20.527Z,41.43
2022-11-18T19:35:47.321Z,35.30
2022-11-18T19:38:24.393Z,42.07
2022-11-18T19:41:05.434Z,46.93
2022-11-18T19:43:32.354Z,39.63
2022-11-18T19:45:59.243Z,39.23
2022-11-18T19:48:40.215Z,39.87
2022-11-18T19:51:20.270Z,32.10
2022-11-18T19:53:46.983Z,34.33
2022-11-18T19:56:17.055Z,36.03
2022-11-18T19:58:54.799Z,38.37
2022-11-18T20:01:23.812Z,35.53
2022-11-18T20:03:52.856Z,37.07
2022-11-18T20:06:23.147Z,37.53
2022-11-18T20:08:49.882Z,42.43
2022-11-18T20:11:20.553Z,35.57
2022-11-18T20:13:56.484Z,38.53
2022-11-18T20:16:24.951Z,39.40
2022-11-18T20:19:05.211Z,36.73
2022-11-18T20:21:40.889Z,38.90
2022-11-18T20:24:16.377Z,33.30
2022-11-18T20:26:51.962Z,39.67
2022-11-18T20:29:19.959Z,35.70
2022-11-18T20:31:47.030Z,34.23
2022-11-18T20:34:24.668Z,42.20
2022-11-18T20:37:18.242Z,33.60
2022-11-18T20:40:10.777Z,33.20
2022-11-18T20:42:57.311Z,33.77
2022-11-18T20:45:26.879Z,30.27
2022-11-18T20:47:54.539Z,37.83
2022-11-18T20:50:21.347Z,38.40
2022-11-18T20:52:48.019Z,43.37
2022-11-18T20:55:15.870Z,37.00
2022-11-18T20:57:42.752Z,42.20
2022-11-18T21:00:10.027Z,38.17
2022-11-18T21:02:36.606Z,35.77
2022-11-18T21:05:06.077Z,39.50
2022-11-18T21:07:33.845Z,32.63
2022-11-18T21:10:00.697Z,36.97
2022-11-18T21:12:27.382Z,38.00
2022-11-18T21:14:53.958Z,41.10
2022-11-18T21:17:22.933Z,34.17
2022-11-18T21:19:51.585Z,36.03
2022-11-18T21:22:26.407Z,39.77
2022-11-18T21:24:56.056Z,37.90
2022-11-18T21:27:25.515Z,40.00
2022-11-18T21:29:56.962Z,44.20
2022-11-18T21:32:23.671Z,43.00
2022-11-18T21:34:54.299Z,39.67
2022-11-18T21:37:23.531Z,40.10
2022-11-18T21:39:53.604Z,36.90
2022-11-18T21:42:20.188Z,36.80
2022-11-18T21:44:49.653Z,40.27
2022-11-18T21:47:16.289Z,38.27
2022-11-18T21:49:42.962Z,41.30
2022-11-18T21:52:12.120Z,39.07
2022-11-18T21:54:38.771Z,40.27
2022-11-18T21:57:05.465Z,38.07
2022-11-18T21:59:32.106Z,41.33
2022-11-18T22:01:58.733Z,40.63
2022-11-18T22:04:43.886Z,36.83
2022-11-18T22:07:10.638Z,34.90
2022-11-18T22:09:37.300Z,34.67
2022-11-18T22:12:05.726Z,37.43
2022-11-18T22:14:32.419Z,37.07
2022-11-18T22:16:59.055Z,36.63
2022-11-18T22:19:25.636Z,38.30
2022-11-18T22:21:52.215Z,36.40
2022-11-18T22:24:18.797Z,39.60
2022-11-18T22:26:45.380Z,34.30
2022-11-18T22:29:11.985Z,34.47
2022-11-18T22:31:38.510Z,34.87
2022-11-18T22:34:05.095Z,32.57
2022-11-18T22:36:40.155Z,34.53
2022-11-18T22:39:09.325Z,31.67
2022-11-18T22:41:54.474Z,32.90
2022-11-18T22:44:21.171Z,37.97
2022-11-18T22:46:47.805Z,34.50
2022-11-18T22:49:22.132Z,29.23
2022-11-18T22:51:49.026Z,30.30
2022-11-18T22:54:37.850Z,33.30
2022-11-18T22:57:06.618Z,36.60
2022-11-18T22:59:33.234Z,34.20
2022-11-18T23:02:01.681Z,30.30
2022-11-18T23:04:28.332Z,32.60
2022-11-18T23:06:55.019Z,32.77
2022-11-18T23:09:22.150Z,31.37
2022-11-18T23:12:11.811Z,33.23
2022-11-18T23:14:38.420Z,28.13
2022-11-18T23:17:05.522Z,35.10
2022-11-18T23:19:32.132Z,34.40
2022-11-18T23:21:58.858Z,34.40
2022-11-18T23:24:30.320Z,37.97
2022-11-18T23:26:56.995Z,30.30
2022-11-18T23:29:23.540Z,29.40
2022-11-18T23:31:50.102Z,28.67
2022-11-18T23:34:17.097Z,27.67
2022-11-18T23:36:47.024Z,35.00
2022-11-18T23:39:13.727Z,32.67
2022-11-18T23:41:40.400Z,32.27
2022-11-18T23:44:07.438Z,31.13
2022-11-18T23:46:34.598Z,35.53
2022-11-18T23:49:05.671Z,37.23
2022-11-18T23:51:38.769Z,30.77
2022-11-18T23:54:05.431Z,37.70
2022-11-18T23:56:39.433Z,33.00
2022-11-18T23:59:08.498Z,31.97
